KPIA/PIA METAR and TAF weather

Enter ICAO airport designator
Station Type Date Time Source
KPIA METAR 2019/06/26 19:54 UTC NOAA

KPIA 261954Z 26009KT 10SM CLR 31/22 A3003 RMK AO2 SLP165 T03060217


Station Type Date Time Source
KPIA Decoded METAR 2019/06/26 19:54 UTC NOAA

GREATER PEORIA REGIONAL AIRPORT , IL, United States (KPIA) 40-40N 89-41W 205M
Jun 26, 2019 - 03:54 PM EDT / 2019.06.26 1954 UTC
Wind: from the W (260 degrees) at 10 MPH (9 KT):0
Visibility: 10 mile(s):0
Sky conditions: clear
Temperature: 87.1 F (30.6 C)
Heat index: 92.8 F (33.8 C):1
Dew Point: 71.1 F (21.7 C)
Relative Humidity: 59%
Pressure (altimeter): 30.03 in. Hg (1016 hPa)
ob: KPIA 261954Z 26009KT 10SM CLR 31/22 A3003 RMK AO2 SLP165 T03060217
cycle: 20

Station Type Date Time Source
KPIA TAF 2019/06/26 18:22 UTC NOAA

TAF KPIA 261720Z 2618/2718 23007KT P6SM FEW040 BKN250
FM262200 21010KT P6SM VCTS SCT040CB BKN070
FM270300 18005KT P6SM SCT120 BKN250

Example: see airport list